Ora Direzione Vento Velocita' Vento Media Vento Raffica Max. Temperatura Wind Chill Pioggia Pressione
14:07:59.0267 °(W)14.8 Kts14.0 Kts18.3 Kts16.6 °C15.0 °C0.0 mm1016.1 Hpa
13:46:40.0260 °(W)17.3 Kts14.8 Kts17.3 Kts17.0 °C15.3 °C0.0 mm1016.3 Hpa
13:27:29.0272 °(W)11.3 Kts14.8 Kts17.3 Kts16.6 °C15.3 °C0.0 mm1016.3 Hpa
13:06:19.0248 °(WSW)11.3 Kts11.3 Kts15.6 Kts16.9 °C15.8 °C0.0 mm1016.3 Hpa
12:47:11.0255 °(WSW)12.2 Kts12.2 Kts15.6 Kts16.2 °C14.7 °C0.0 mm1016.4 Hpa
12:25:55.035 °(NE)3.5 Kts2.5 Kts15.6 Kts17.7 °C17.7 °C0.0 mm1016.3 Hpa
12:06:35.0325 °(NW)7.8 Kts7.0 Kts15.6 Kts17.1 °C17.0 °C0.0 mm1016.3 Hpa
11:47:23.032 °(NNE)5.2 Kts5.2 Kts15.6 Kts16.7 °C16.2 °C0.0 mm1016.5 Hpa
11:26:02.00 °(N)3.5 Kts5.2 Kts15.6 Kts16.1 °C16.0 °C0.0 mm1016.5 Hpa
11:06:50.025 °(NNE)5.2 Kts5.2 Kts15.6 Kts16.0 °C15.1 °C0.0 mm1016.6 Hpa
10:47:36.05 °(N)7.8 Kts6.0 Kts15.6 Kts15.2 °C14.2 °C0.0 mm1016.7 Hpa
10:26:22.026 °(NNE)9.5 Kts8.7 Kts15.6 Kts14.6 °C13.1 °C0.0 mm1016.8 Hpa
10:07:04.05 °(N)4.3 Kts9.5 Kts15.6 Kts14.0 °C13.5 °C0.0 mm1016.7 Hpa
09:47:51.022 °(NNE)11.3 Kts8.7 Kts15.6 Kts13.2 °C11.4 °C0.0 mm1016.7 Hpa
09:26:34.021 °(NNE)9.5 Kts9.5 Kts15.6 Kts12.5 °C10.5 °C0.0 mm1016.6 Hpa
09:07:19.039 °(NE)5.2 Kts7.8 Kts15.6 Kts12.1 °C11.7 °C0.0 mm1016.4 Hpa
08:46:03.030 °(NNE)10.5 Kts8.7 Kts14.0 Kts11.4 °C9.0 °C0.0 mm1016.2 Hpa
08:26:42.023 °(NNE)9.5 Kts7.8 Kts10.5 Kts10.7 °C8.3 °C0.0 mm1016.0 Hpa
08:07:31.036 °(NE)8.7 Kts6.0 Kts9.5 Kts10.1 °C7.7 °C0.0 mm1015.9 Hpa
07:45:59.032 °(NNE)7.8 Kts6.0 Kts9.5 Kts9.3 °C6.9 °C0.0 mm1015.7 Hpa